Time;durP1;ratioP1;P1;durP2;ratioP2;P2;SDS_P1;SDS_P2;PMS_P1;PMS_P2;Temp;Humidity;BMP_temperature;BMP_pressure;BME280_temperature;BME280_humidity;BME280_pressure;Samples;Min_cycle;Max_cycle;Signal;HPM_P1;HPM_P2
2022/06/12 00:01:39;;;;;;;4.35;3.40;;;;;;;25.59;45.51;99997.25;4136896;28;20292;-69
2022/06/12 00:03:42;;;;;;;7.10;3.22;;;;;;;25.71;45.35;99993.56;4164033;28;20719;-69
2022/06/12 00:05:47;;;;;;;4.85;3.08;;;;;;;25.69;45.80;100010.16;4137590;28;20266;-69
2022/06/12 00:07:49;;;;;;;5.43;3.20;;;;;;;26.02;44.65;100007.59;4134779;28;20289;-69
2022/06/12 00:09:50;;;;;;;4.45;3.13;;;;;;;26.33;44.40;100014.16;4138386;28;20280;-69
2022/06/12 00:11:52;;;;;;;6.18;3.33;;;;;;;26.27;44.41;100026.91;4138357;28;20244;-68
2022/06/12 00:13:57;;;;;;;6.63;3.28;;;;;;;26.59;43.62;100026.16;4140789;28;20234;-69
2022/06/12 00:16:00;;;;;;;4.00;3.42;;;;;;;26.72;43.00;100035.78;4140442;28;20263;-68
2022/06/12 00:18:03;;;;;;;6.25;3.85;;;;;;;26.53;43.18;100049.81;4139154;28;20261;-68
2022/06/12 00:20:05;;;;;;;6.88;4.63;;;;;;;26.23;43.08;100050.28;4143614;28;20239;-68
2022/06/12 00:22:07;;;;;;;6.07;4.45;;;;;;;26.41;43.10;100049.13;4138791;28;20237;-68
2022/06/12 00:24:13;;;;;;;6.97;4.70;;;;;;;25.85;44.04;100054.75;4143479;28;20233;-68
2022/06/12 00:26:20;;;;;;;6.70;4.57;;;;;;;25.63;44.54;100043.84;4138169;28;20247;-68
2022/06/12 00:28:21;;;;;;;5.28;4.63;;;;;;;25.81;44.31;100041.88;4144578;28;20228;-68
2022/06/12 00:30:25;;;;;;;7.25;4.82;;;;;;;25.88;43.99;100037.91;4145066;28;20221;-68
2022/06/12 00:32:29;;;;;;;7.82;4.75;;;;;;;25.87;44.27;100041.69;4140629;28;20234;-68
2022/06/12 00:34:35;;;;;;;7.72;4.50;;;;;;;25.66;44.53;100039.78;4138159;28;20228;-68
2022/06/12 00:36:37;;;;;;;9.55;4.78;;;;;;;25.52;44.93;100039.34;4137372;28;20241;-68
2022/06/12 00:38:39;;;;;;;9.25;4.93;;;;;;;25.12;45.54;100024.03;4140171;28;20237;-68
2022/06/12 00:40:41;;;;;;;8.13;5.05;;;;;;;25.18;45.60;100029.31;4139470;28;20672;-68
2022/06/12 00:42:49;;;;;;;7.15;4.45;;;;;;;24.55;47.42;100030.44;4141731;28;20752;-68
2022/06/12 00:44:52;;;;;;;6.28;4.40;;;;;;;24.53;47.24;100006.25;4133553;28;20879;-68
2022/06/12 00:47:00;;;;;;;5.80;4.68;;;;;;;25.31;45.86;99995.50;4143499;28;20249;-68
2022/06/12 00:49:08;;;;;;;6.93;3.92;;;;;;;25.34;45.48;100002.31;4140497;28;20577;-68
2022/06/12 00:51:19;;;;;;;4.60;3.50;;;;;;;24.91;45.99;100012.84;4134508;28;20326;-68
2022/06/12 00:53:27;;;;;;;4.25;3.83;;;;;;;25.49;45.45;100004.44;4134565;28;20618;-68
2022/06/12 00:55:40;;;;;;;5.53;4.28;;;;;;;24.48;46.48;100019.72;4138632;28;20230;-68
2022/06/12 00:57:42;;;;;;;82.85;9.65;;;;;;;24.99;45.91;100011.63;4138109;28;20244;-68
2022/06/12 00:59:48;;;;;;;5.68;4.30;;;;;;;24.46;47.41;100017.28;4143856;28;20237;-68
2022/06/12 01:01:52;;;;;;;4.65;3.58;;;;;;;25.00;45.98;100007.81;4136122;28;20237;-68
2022/06/12 01:08:35;;;;;;;6.88;3.63;;;;;;;24.08;47.57;100016.00;4141591;28;20675;-69
2022/06/12 01:10:41;;;;;;;4.38;3.80;;;;;;;23.37;49.18;100009.91;4139048;28;20229;-68
2022/06/12 01:12:50;;;;;;;6.05;3.97;;;;;;;23.32;49.51;99990.81;4139875;28;20300;-68
2022/06/12 01:15:14;;;;;;;6.72;4.22;;;;;;;23.88;48.51;99983.84;4138949;28;20797;-69
2022/06/12 01:17:18;;;;;;;7.13;5.00;;;;;;;24.36;47.52;99999.94;4137952;28;20309;-66
2022/06/12 01:19:25;;;;;;;6.93;4.55;;;;;;;24.50;46.81;99987.72;4140355;28;20233;-68
2022/06/12 01:21:42;;;;;;;7.22;4.55;;;;;;;23.56;49.25;100003.28;4140801;28;20303;-68
2022/06/12 01:23:57;;;;;;;7.07;4.30;;;;;;;24.56;47.35;99975.00;4141778;28;20247;-66
2022/06/12 01:26:32;;;;;;;6.93;4.75;;;;;;;24.96;46.53;99993.91;4136679;28;20633;-66
2022/06/12 01:28:49;;;;;;;5.20;4.35;;;;;;;25.80;45.07;99994.78;4146373;28;20232;-66
2022/06/12 01:31:06;;;;;;;8.65;4.10;;;;;;;25.26;45.46;100022.63;4137876;28;20241;-67
2022/06/12 01:33:10;;;;;;;9.35;4.25;;;;;;;25.53;44.97;100021.94;4140259;28;20241;-68
2022/06/12 01:35:35;;;;;;;7.65;4.88;;;;;;;25.42;45.17;100026.41;4136320;28;20233;-68
2022/06/12 01:37:52;;;;;;;7.05;5.10;;;;;;;25.27;45.83;100020.72;4140174;28;20237;-68
2022/06/12 01:40:01;;;;;;;8.18;4.53;;;;;;;25.40;44.97;100018.50;4136397;28;20757;-68
2022/06/12 01:42:14;;;;;;;6.95;4.50;;;;;;;25.54;44.61;100020.84;4140937;28;20267;-68
2022/06/12 01:44:39;;;;;;;6.32;4.28;;;;;;;25.64;44.28;100020.97;4134449;28;20233;-68
2022/06/12 01:46:47;;;;;;;9.27;5.00;;;;;;;26.00;44.08;100026.91;4129738;28;20236;-66
2022/06/12 01:49:13;;;;;;;8.10;5.18;;;;;;;25.75;44.14;100025.50;4136664;28;20229;-66
2022/06/12 01:51:38;;;;;;;8.23;4.20;;;;;;;25.65;44.59;100032.72;4137050;28;20233;-66
2022/06/12 01:53:51;;;;;;;5.68;4.13;;;;;;;24.17;47.17;100040.91;4136412;28;20275;-66
2022/06/12 01:56:06;;;;;;;7.07;3.92;;;;;;;23.80;48.48;100035.00;4136311;28;20742;-66
2022/06/12 01:58:13;;;;;;;6.60;4.57;;;;;;;24.53;46.47;100002.69;4143822;28;20237;-66
2022/06/12 02:00:20;;;;;;;5.63;4.20;;;;;;;24.82;46.03;100019.81;4138460;28;20709;-66
2022/06/12 02:02:26;;;;;;;8.10;4.20;;;;;;;23.72;48.60;100022.59;4137170;28;20234;-67
2022/06/12 02:04:38;;;;;;;6.20;4.45;;;;;;;24.65;46.34;99993.41;4137615;28;20284;-66
2022/06/12 02:06:48;;;;;;;8.77;4.55;;;;;;;24.44;47.00;100010.44;4136411;28;20275;-67
2022/06/12 02:09:05;;;;;;;6.85;3.92;;;;;;;23.87;48.18;100008.50;4137254;28;20295;-67
2022/06/12 02:13:36;;;;;;;8.85;4.30;;;;;;;23.28;49.44;99995.03;4138468;28;20268;-67
2022/06/12 02:15:58;;;;;;;7.88;4.20;;;;;;;23.71;48.34;99991.09;4133608;28;20229;-67
2022/06/12 02:18:08;;;;;;;9.43;4.40;;;;;;;23.19;49.49;99989.97;4131465;28;20221;-67
2022/06/12 02:20:13;;;;;;;8.68;4.20;;;;;;;23.22;49.22;99979.75;4137423;28;20230;-67
2022/06/12 02:22:19;;;;;;;7.78;3.92;;;;;;;23.43;49.15;99989.13;4139207;28;20284;-67
2022/06/12 02:24:30;;;;;;;6.93;4.15;;;;;;;23.38;49.25;99987.97;4141012;28;20279;-67
2022/06/12 02:26:49;;;;;;;10.18;4.70;;;;;;;23.94;47.73;99993.75;4138272;28;20237;-67
2022/06/12 02:28:58;;;;;;;6.93;4.72;;;;;;;23.46;48.73;100003.03;4144358;28;20236;-67
2022/06/12 02:31:05;;;;;;;6.72;4.45;;;;;;;24.08;47.50;99980.69;4139089;28;20291;-67
2022/06/12 02:33:12;;;;;;;6.43;4.25;;;;;;;23.75;47.99;100005.84;4138706;28;20268;-67
2022/06/12 02:35:16;;;;;;;8.40;4.55;;;;;;;24.39;47.04;99991.31;4132450;28;20695;-67
2022/06/12 02:37:23;;;;;;;5.93;4.15;;;;;;;24.28;46.99;99993.84;4139025;28;20237;-67
2022/06/12 02:39:35;;;;;;;6.55;4.25;;;;;;;24.13;47.53;100002.50;4135212;28;20289;-67
2022/06/12 02:41:44;;;;;;;6.03;4.43;;;;;;;24.45;47.00;99987.63;4138887;28;20236;-67
2022/06/12 02:43:48;;;;;;;4.80;3.95;;;;;;;24.95;45.93;99994.16;4140508;28;20311;-67
2022/06/12 02:46:08;;;;;;;6.15;4.68;;;;;;;24.81;46.20;100002.63;4137809;28;20324;-67
2022/06/12 02:48:10;;;;;;;6.18;4.15;;;;;;;24.51;46.70;100019.25;4140734;28;20776;-67
2022/06/12 02:50:15;;;;;;;6.13;4.28;;;;;;;24.06;47.62;100029.00;4139457;28;20243;-67
2022/06/12 02:52:54;;;;;;;8.23;4.90;;;;;;;24.42;46.70;100010.66;4132131;28;20260;-67
2022/06/12 02:55:21;;;;;;;7.03;4.10;;;;;;;24.08;47.65;100021.44;4127507;28;20236;-67
2022/06/12 02:57:45;;;;;;;5.40;3.72;;;;;;;23.67;48.36;100017.91;4135079;28;20761;-67
2022/06/12 02:59:53;;;;;;;4.47;3.90;;;;;;;24.20;47.42;100005.13;4141171;28;20237;-67
2022/06/12 03:02:09;;;;;;;7.82;4.30;;;;;;;24.95;46.07;100003.16;4133446;28;20224;-67
2022/06/12 03:04:24;;;;;;;5.43;3.95;;;;;;;24.71;45.65;100018.75;4138095;28;20244;-67
2022/06/12 03:06:27;;;;;;;6.65;4.32;;;;;;;25.18;45.11;100023.88;4136414;28;20237;-67
2022/06/12 03:08:34;;;;;;;4.80;3.95;;;;;;;25.30;44.73;100028.41;4138221;28;20245;-67
2022/06/12 03:10:44;;;;;;;8.93;4.38;;;;;;;23.93;47.39;100034.72;4136984;28;20283;-67
2022/06/12 03:12:46;;;;;;;5.03;3.78;;;;;;;24.30;46.84;100021.59;4138731;28;20267;-67
2022/06/12 03:14:52;;;;;;;6.63;3.30;;;;;;;24.73;45.42;100030.22;4136578;28;20569;-67
2022/06/12 03:16:54;;;;;;;6.57;3.70;;;;;;;24.18;46.45;100037.13;4124043;28;20316;-67
2022/06/12 03:19:15;;;;;;;5.55;3.40;;;;;;;25.07;44.75;100021.25;4140307;28;20287;-67
2022/06/12 03:21:39;;;;;;;4.47;3.40;;;;;;;25.04;44.64;100039.72;4135905;28;20268;-67
2022/06/12 03:23:40;;;;;;;6.93;3.88;;;;;;;24.58;45.05;100052.53;4140390;28;20229;-67
2022/06/12 03:25:54;;;;;;;4.63;4.05;;;;;;;24.51;45.47;100046.41;4134070;28;20241;-67
2022/06/12 03:28:09;;;;;;;6.47;4.90;;;;;;;24.95;45.32;100037.66;4139616;28;20706;-67
2022/06/12 03:30:24;;;;;;;9.15;6.38;;;;;;;24.45;45.94;100048.22;4134680;28;20225;-67
2022/06/12 03:32:35;;;;;;;9.35;6.07;;;;;;;24.59;45.74;100051.47;4141090;28;20734;-67
2022/06/12 03:34:53;;;;;;;8.35;6.00;;;;;;;24.60;45.75;100050.41;4136387;28;20291;-67
2022/06/12 03:37:04;;;;;;;8.27;5.73;;;;;;;24.13;46.62;100069.59;4136882;28;20623;-67
2022/06/12 03:39:33;;;;;;;6.40;4.90;;;;;;;24.39;46.35;100045.66;4136557;28;20237;-67
2022/06/12 03:41:50;;;;;;;9.93;5.43;;;;;;;24.48;46.23;100052.34;4136970;28;20245;-67
2022/06/12 03:44:00;;;;;;;5.83;4.67;;;;;;;24.52;45.85;100056.22;4134194;28;20311;-67
2022/06/12 03:46:49;;;;;;;8.00;5.17;;;;;;;24.60;46.00;100046.88;4142112;28;20236;-67
2022/06/12 03:48:51;;;;;;;9.30;5.70;;;;;;;24.25;46.54;100064.97;4117722;28;20229;-67
2022/06/12 03:50:57;;;;;;;7.77;5.53;;;;;;;23.82;47.44;100062.72;4139461;28;20209;-67
2022/06/12 03:53:11;;;;;;;8.37;5.73;;;;;;;23.53;48.40;100058.00;4147164;28;20240;-67
2022/06/12 03:57:50;;;;;;;7.83;5.77;;;;;;;24.22;46.97;100038.28;4140266;28;20291;-67
2022/06/12 03:57:53;;;;;;;6.90;5.22;;;;;;;23.56;48.19;100065.72;4136712;28;20236;-67
2022/06/12 04:00:18;;;;;;;7.65;5.10;;;;;;;24.19;47.11;100038.78;4144161;28;20225;-67
2022/06/12 04:02:24;;;;;;;7.68;4.70;;;;;;;24.31;46.36;100053.16;4140513;28;20292;-68
2022/06/12 04:04:30;;;;;;;8.70;5.20;;;;;;;24.66;45.63;100051.31;4144721;28;20229;-68
2022/06/12 04:06:33;;;;;;;7.87;5.20;;;;;;;24.79;45.63;100059.19;4140908;28;20233;-67
2022/06/12 04:08:40;;;;;;;7.05;4.97;;;;;;;24.43;46.27;100068.56;4143093;28;20229;-67
2022/06/12 04:10:44;;;;;;;5.70;4.82;;;;;;;24.62;46.09;100045.53;4141109;28;20330;-67
2022/06/12 04:12:46;;;;;;;7.60;5.35;;;;;;;24.87;45.72;100049.78;4141058;28;20234;-68
2022/06/12 04:15:08;;;;;;;9.70;5.82;;;;;;;24.21;46.98;100058.38;4140857;28;20306;-67
2022/06/12 04:17:09;;;;;;;6.43;5.50;;;;;;;24.00;47.51;100051.69;4144707;28;20240;-67
2022/06/12 04:19:16;;;;;;;6.50;5.80;;;;;;;24.23;46.87;100050.81;4142387;28;20244;-68
2022/06/12 04:21:30;;;;;;;7.03;5.32;;;;;;;23.33;49.25;100074.69;4143885;28;20237;-67
2022/06/12 04:23:59;;;;;;;5.00;4.45;;;;;;;23.13;49.91;100050.63;4143149;28;20237;-67
2022/06/12 04:26:07;;;;;;;6.95;4.70;;;;;;;23.89;48.14;100044.38;4139848;28;20260;-67
2022/06/12 04:28:40;;;;;;;8.10;4.63;;;;;;;23.49;49.05;100046.00;4140814;28;20291;-68
2022/06/12 04:30:42;;;;;;;7.93;5.80;;;;;;;23.82;47.83;100036.38;4141929;28;20241;-68
2022/06/12 04:32:44;;;;;;;12.13;6.53;;;;;;;24.27;46.84;100048.44;4141764;28;20237;-67
2022/06/12 04:34:46;;;;;;;7.63;5.70;;;;;;;23.98;47.68;100051.13;4137711;28;20260;-68
2022/06/12 04:36:51;;;;;;;9.27;5.68;;;;;;;24.11;47.40;100052.72;4142848;28;20602;-68
2022/06/12 04:38:53;;;;;;;10.75;6.53;;;;;;;25.09;45.26;100049.88;4141542;28;20233;-67
2022/06/12 04:40:55;;;;;;;9.52;5.47;;;;;;;24.59;46.87;100053.38;4143549;28;20907;-67
2022/06/12 04:42:57;;;;;;;7.40;5.45;;;;;;;24.13;47.75;100062.28;4142925;28;20303;-67
2022/06/12 04:45:00;;;;;;;8.18;5.38;;;;;;;24.71;46.58;100050.56;4142437;28;20233;-67
2022/06/12 04:47:04;;;;;;;8.45;5.18;;;;;;;24.86;46.11;100062.56;4143148;28;20384;-67
2022/06/12 04:49:06;;;;;;;8.00;4.90;;;;;;;24.18;47.40;100072.44;4144218;28;20238;-67
2022/06/12 04:51:09;;;;;;;5.75;4.57;;;;;;;24.13;48.06;100069.59;4139822;28;20310;-68
2022/06/12 04:53:11;;;;;;;5.55;4.30;;;;;;;23.43;49.71;100068.63;4141570;28;20256;-68
2022/06/12 04:55:13;;;;;;;10.13;5.07;;;;;;;24.30;47.73;100062.34;4139375;28;20232;-68
2022/06/12 04:57:16;;;;;;;8.00;5.10;;;;;;;24.43;47.06;100055.81;4137732;28;20300;-67
2022/06/12 04:59:20;;;;;;;8.00;5.47;;;;;;;24.83;46.15;100067.66;4143963;28;20237;-68
2022/06/12 05:01:23;;;;;;;9.48;4.55;;;;;;;24.66;46.33;100071.16;4140508;28;20838;-68
2022/06/12 05:03:29;;;;;;;5.72;3.90;;;;;;;25.29;45.58;100068.41;4145309;28;20235;-68
2022/06/12 05:05:31;;;;;;;5.15;3.88;;;;;;;25.13;45.47;100080.13;4139252;28;20233;-68
2022/06/12 05:07:33;;;;;;;5.38;3.80;;;;;;;24.95;45.81;100083.91;4140904;28;20295;-67
2022/06/12 05:09:39;;;;;;;7.10;4.28;;;;;;;24.66;47.16;100086.66;4140312;28;20655;-67
2022/06/12 05:11:43;;;;;;;9.60;4.28;;;;;;;25.09;46.11;100077.06;4138960;28;20241;-68
2022/06/12 05:13:45;;;;;;;6.68;4.68;;;;;;;25.00;46.24;100078.53;4143092;28;20299;-67
2022/06/12 05:15:46;;;;;;;5.57;4.40;;;;;;;25.10;46.37;100081.44;4140760;28;20292;-67
2022/06/12 05:17:49;;;;;;;9.32;4.10;;;;;;;25.23;45.81;100077.56;4139657;28;21074;-68
2022/06/12 05:19:51;;;;;;;6.22;4.45;;;;;;;25.62;45.79;100072.16;4138900;28;20233;-68
2022/06/12 05:21:53;;;;;;;6.30;4.10;;;;;;;24.90;47.18;100086.53;4138867;28;20749;-67
2022/06/12 05:23:56;;;;;;;7.43;4.30;;;;;;;25.30;46.61;100074.66;4141568;28;20304;-68
2022/06/12 05:25:58;;;;;;;6.55;4.20;;;;;;;25.07;46.88;100075.66;4142634;28;20221;-67
2022/06/12 05:28:03;;;;;;;5.88;4.20;;;;;;;25.61;45.47;100081.41;4139502;28;20268;-67
2022/06/12 05:30:06;;;;;;;6.18;4.38;;;;;;;25.26;46.18;100077.06;4145407;28;20221;-67
2022/06/12 05:32:12;;;;;;;6.13;3.67;;;;;;;24.15;48.31;100091.09;4140545;28;20290;-68
2022/06/12 05:34:15;;;;;;;8.35;4.05;;;;;;;24.49;47.64;100081.19;4138465;28;20230;-67
2022/06/12 05:36:17;;;;;;;4.35;3.60;;;;;;;24.73;47.70;100084.59;4143352;28;20595;-67
2022/06/12 05:38:19;;;;;;;8.70;4.45;;;;;;;24.34;48.67;100083.63;4139087;28;20225;-68
2022/06/12 05:40:24;;;;;;;7.80;4.15;;;;;;;23.27;49.62;100086.47;4141658;28;20654;-67
2022/06/12 05:42:25;;;;;;;6.18;4.07;;;;;;;24.70;47.85;100063.34;4142950;28;20267;-67
2022/06/12 05:44:27;;;;;;;4.95;3.72;;;;;;;23.84;48.66;100075.00;4142399;28;20226;-67
2022/06/12 05:46:30;;;;;;;5.55;3.90;;;;;;;24.65;46.97;100071.41;4136055;28;20237;-67
2022/06/12 05:48:32;;;;;;;6.28;3.55;;;;;;;23.94;48.26;100085.25;4139750;28;20272;-68
2022/06/12 05:50:36;;;;;;;7.47;3.83;;;;;;;24.95;46.41;100062.16;4137944;28;20610;-67
2022/06/12 05:52:38;;;;;;;4.70;3.70;;;;;;;24.07;48.23;100084.16;4139150;28;20221;-67
2022/06/12 05:54:40;;;;;;;7.78;3.80;;;;;;;24.29;47.86;100065.31;4140880;28;20232;-67
2022/06/12 05:56:42;;;;;;;4.53;3.80;;;;;;;24.37;47.55;100072.25;4136464;28;20649;-68
2022/06/12 05:58:44;;;;;;;6.68;4.65;;;;;;;25.03;46.84;100067.19;4145370;28;20233;-68
2022/06/12 06:00:47;;;;;;;5.13;3.50;;;;;;;23.54;48.96;100084.09;4140031;28;20230;-68
2022/06/12 06:02:49;;;;;;;6.38;3.92;;;;;;;24.02;48.30;100070.47;4139410;28;20710;-68
2022/06/12 06:04:51;;;;;;;6.95;4.00;;;;;;;23.89;48.99;100066.97;4140121;28;20233;-68
2022/06/12 06:06:57;;;;;;;4.50;3.53;;;;;;;24.41;47.70;100076.13;4140023;28;20676;-67
2022/06/12 06:08:59;;;;;;;5.72;3.50;;;;;;;23.74;48.64;100082.94;4140564;28;20264;-68
2022/06/12 06:11:01;;;;;;;6.25;4.20;;;;;;;23.53;49.37;100076.19;4143201;28;20902;-68
2022/06/12 06:13:03;;;;;;;5.43;3.70;;;;;;;25.56;45.53;100065.81;4142281;28;20241;-67
2022/06/12 06:15:05;;;;;;;5.93;3.72;;;;;;;24.52;47.58;100094.28;4137886;28;20807;-68
2022/06/12 06:17:07;;;;;;;6.35;3.90;;;;;;;26.06;45.08;100072.19;4139529;28;20259;-67
2022/06/12 06:19:10;;;;;;;5.68;4.05;;;;;;;25.69;46.70;100091.84;4141838;28;20638;-67
2022/06/12 06:21:14;;;;;;;6.13;3.60;;;;;;;25.57;46.24;100089.22;4141605;28;20244;-68
2022/06/12 06:23:21;;;;;;;7.93;4.30;;;;;;;24.89;47.90;100093.06;4140859;28;20232;-68
2022/06/12 06:25:25;;;;;;;6.60;4.03;;;;;;;25.49;47.19;100076.06;4140544;28;20233;-67
2022/06/12 06:27:26;;;;;;;4.95;3.72;;;;;;;25.16;47.88;100068.75;4144035;28;20233;-68
2022/06/12 06:29:28;;;;;;;4.38;3.65;;;;;;;24.55;49.30;100082.09;4145151;28;20256;-68
2022/06/12 06:31:30;;;;;;;6.32;3.50;;;;;;;25.29;48.14;100073.00;4143951;28;20721;-67
2022/06/12 06:33:31;;;;;;;5.32;3.72;;;;;;;26.27;45.40;100075.97;4139312;28;20796;-68
2022/06/12 06:35:38;;;;;;;6.70;3.40;;;;;;;26.55;44.68;100090.47;4139303;28;20669;-67
2022/06/12 06:37:41;;;;;;;6.63;3.45;;;;;;;26.20;45.16;100088.16;4138964;28;20241;-68
2022/06/12 06:39:43;;;;;;;5.65;3.58;;;;;;;26.22;45.66;100091.44;4140677;28;21133;-67
2022/06/12 06:41:44;;;;;;;5.10;3.20;;;;;;;25.78;46.50;100095.78;4141333;28;20241;-68
2022/06/12 06:46:14;;;;;;;5.32;3.47;;;;;;;25.90;46.50;100086.69;4132168;28;20256;-68
2022/06/12 06:48:16;;;;;;;6.32;3.47;;;;;;;26.60;45.52;100078.78;4140752;28;20236;-68
2022/06/12 06:50:20;;;;;;;6.55;3.60;;;;;;;26.05;46.52;100086.91;4138583;28;20221;-68
2022/06/12 06:52:22;;;;;;;5.53;3.83;;;;;;;26.41;45.26;100084.56;4141210;28;20306;-68
2022/06/12 06:54:24;;;;;;;5.13;3.75;;;;;;;26.86;44.39;100088.03;4140172;28;20236;-68
2022/06/12 06:56:26;;;;;;;6.18;3.75;;;;;;;26.37;45.43;100094.34;4137219;28;20229;-67
2022/06/12 06:58:31;;;;;;;6.00;3.53;;;;;;;26.13;46.18;100085.63;4139449;28;20237;-67
2022/06/12 07:00:33;;;;;;;3.88;3.58;;;;;;;25.99;47.20;100082.47;4136620;28;20221;-69
2022/06/12 07:02:35;;;;;;;6.82;3.60;;;;;;;26.40;47.01;100069.28;4140149;28;20264;-68
2022/06/12 07:04:38;;;;;;;6.65;4.38;;;;;;;26.83;45.19;100066.72;4139337;28;20232;-68
2022/06/12 07:06:40;;;;;;;3.80;3.38;;;;;;;26.05;46.71;100092.34;4139087;28;20283;-68
2022/06/12 07:08:42;;;;;;;5.00;3.60;;;;;;;26.29;46.35;100084.72;4140062;28;20283;-67
2022/06/12 07:10:45;;;;;;;5.35;3.70;;;;;;;26.64;45.55;100082.63;4143760;28;20287;-67
2022/06/12 07:12:47;;;;;;;7.47;3.83;;;;;;;26.38;46.62;100084.25;4138485;28;20229;-67
2022/06/12 07:14:49;;;;;;;5.63;3.65;;;;;;;26.99;45.55;100090.31;4133147;28;20237;-68
2022/06/12 07:16:50;;;;;;;6.05;3.97;;;;;;;26.13;47.42;100086.47;4141907;28;20233;-67
2022/06/12 07:18:52;;;;;;;5.88;3.78;;;;;;;27.02;46.17;100072.59;4142100;28;20682;-67
2022/06/12 07:20:57;;;;;;;4.45;3.38;;;;;;;25.49;48.40;100073.34;4143763;28;20213;-67
2022/06/12 07:22:58;;;;;;;5.40;3.50;;;;;;;26.86;46.63;100055.31;4139673;28;20245;-67
2022/06/12 07:25:00;;;;;;;6.85;3.58;;;;;;;26.31;46.85;100068.09;4142772;28;20240;-68
2022/06/12 07:27:03;;;;;;;7.60;3.78;;;;;;;26.83;45.62;100064.00;4141451;28;20237;-67
2022/06/12 07:29:06;;;;;;;4.72;2.88;;;;;;;27.27;44.26;100088.38;4147907;28;20710;-67
2022/06/12 07:31:08;;;;;;;6.20;3.47;;;;;;;27.00;44.96;100083.78;4140972;28;20714;-68
2022/06/12 07:33:10;;;;;;;5.60;3.33;;;;;;;27.63;43.79;100083.16;4143030;28;20280;-68
2022/06/12 07:35:13;;;;;;;5.85;3.33;;;;;;;27.74;45.03;100087.59;4142707;28;20241;-67
2022/06/12 07:37:14;;;;;;;5.13;3.72;;;;;;;27.35;45.04;100076.97;4144702;28;20241;-67
2022/06/12 07:39:25;;;;;;;6.93;3.92;;;;;;;27.00;46.28;100078.31;4143301;28;20225;-67
2022/06/12 07:41:27;;;;;;;4.45;3.22;;;;;;;25.09;48.93;100076.22;4142385;28;20306;-67
2022/06/12 07:43:33;;;;;;;4.57;3.60;;;;;;;26.04;48.21;100059.91;4141489;28;20245;-67
2022/06/12 07:45:37;;;;;;;8.73;4.25;;;;;;;26.89;46.76;100057.47;4149348;28;20270;-67
2022/06/12 07:47:38;;;;;;;8.50;3.65;;;;;;;26.42;47.86;100056.25;4143687;28;20240;-67
2022/06/12 07:49:40;;;;;;;5.47;3.40;;;;;;;26.50;46.88;100061.25;4146732;28;21091;-68
2022/06/12 07:51:42;;;;;;;3.72;2.97;;;;;;;26.81;46.68;100050.63;4140345;28;20323;-68
2022/06/12 07:53:45;;;;;;;5.15;4.00;;;;;;;27.49;45.32;100058.19;4142407;28;20233;-67
2022/06/12 07:55:48;;;;;;;6.80;3.35;;;;;;;26.46;46.84;100064.72;4140492;28;20233;-68
2022/06/12 07:57:50;;;;;;;5.93;3.38;;;;;;;26.68;48.07;100048.31;4140251;28;20326;-67
2022/06/12 07:59:52;;;;;;;7.45;3.85;;;;;;;27.02;46.35;100042.59;4148324;28;20327;-67
2022/06/12 08:01:54;;;;;;;4.90;3.30;;;;;;;27.34;46.52;100052.66;4143312;28;20237;-67
2022/06/12 08:03:57;;;;;;;5.10;3.42;;;;;;;26.64;46.70;100056.19;4142318;28;20237;-68
2022/06/12 08:05:59;;;;;;;6.65;3.63;;;;;;;26.80;46.55;100050.88;4136260;28;20264;-67
2022/06/12 08:08:01;;;;;;;5.70;3.92;;;;;;;27.40;46.79;100036.03;4143356;28;20237;-67
2022/06/12 08:10:04;;;;;;;6.30;3.60;;;;;;;27.72;46.18;100032.41;4146564;28;20659;-68
2022/06/12 08:12:08;;;;;;;5.28;3.35;;;;;;;27.10;46.64;100035.84;4140961;28;20286;-68
2022/06/12 08:14:10;;;;;;;4.47;3.35;;;;;;;26.21;48.79;100024.41;4143483;28;20703;-67
2022/06/12 08:16:12;;;;;;;4.13;3.50;;;;;;;27.88;45.76;100027.78;4143240;28;20229;-68
2022/06/12 08:18:15;;;;;;;5.72;3.50;;;;;;;27.07;46.92;100046.19;4142966;28;20254;-68
2022/06/12 08:20:28;;;;;;;6.22;3.33;;;;;;;27.91;45.37;100031.91;4148281;28;20291;-68
2022/06/12 08:22:31;;;;;;;6.95;3.60;;;;;;;27.76;44.80;100044.41;4141594;28;20296;-68
2022/06/12 08:24:34;;;;;;;5.60;3.28;;;;;;;27.89;45.33;100050.50;4143274;28;20937;-69
2022/06/12 08:26:36;;;;;;;7.50;3.58;;;;;;;28.06;45.73;100050.28;4140768;28;20226;-68
2022/06/12 08:28:51;;;;;;;5.10;3.60;;;;;;;28.55;44.60;100039.72;4145653;28;20238;-67
2022/06/12 08:30:53;;;;;;;6.85;3.35;;;;;;;28.89;42.62;100041.13;4138096;28;20275;-67
2022/06/12 08:32:56;;;;;;;8.07;3.88;;;;;;;28.96;42.41;100055.34;4131517;28;20237;-68
2022/06/12 08:35:03;;;;;;;4.72;3.50;;;;;;;29.20;42.90;100054.75;4140163;28;20307;-67
2022/06/12 08:37:19;;;;;;;5.05;3.47;;;;;;;28.77;43.10;100067.97;4136315;28;20577;-68
2022/06/12 08:39:21;;;;;;;7.85;3.50;;;;;;;28.57;43.48;100069.53;4140470;28;20233;-68
2022/06/12 08:42:11;;;;;;;7.88;4.05;;;;;;;28.72;42.81;100064.09;4137019;28;20257;-68
2022/06/12 08:44:36;;;;;;;7.30;2.92;;;;;;;29.34;42.23;100061.34;4127250;28;20300;-67
2022/06/12 08:47:16;;;;;;;5.00;3.03;;;;;;;28.16;44.59;100069.47;4141310;28;20225;-68
2022/06/12 08:49:30;;;;;;;5.70;3.75;;;;;;;28.60;42.97;100058.06;4140174;28;20623;-68
2022/06/12 08:51:39;;;;;;;4.57;2.90;;;;;;;28.69;41.85;100053.69;4138632;28;20233;-67
2022/06/12 08:54:02;;;;;;;4.00;2.92;;;;;;;28.59;43.25;100048.19;4142613;28;20240;-67
2022/06/12 08:56:10;;;;;;;3.75;2.90;;;;;;;29.65;41.94;100044.81;4141385;28;20229;-68
2022/06/12 08:58:31;;;;;;;4.20;2.88;;;;;;;29.36;41.92;100042.72;4143976;28;20733;-67
2022/06/12 09:00:36;;;;;;;6.18;3.13;;;;;;;29.22;43.02;100031.53;4137782;28;20233;-68
2022/06/12 09:02:40;;;;;;;3.78;2.70;;;;;;;28.82;43.96;100022.25;4140803;28;20233;-68
2022/06/12 09:04:42;;;;;;;6.00;3.30;;;;;;;28.84;43.83;100024.72;4141839;28;20769;-68
2022/06/12 09:06:46;;;;;;;7.50;3.50;;;;;;;30.05;41.79;100026.56;4141796;28;20683;-67
2022/06/12 09:09:09;;;;;;;4.30;2.90;;;;;;;29.67;42.58;100026.16;4141304;28;20236;-68
2022/06/12 09:11:29;;;;;;;5.63;3.03;;;;;;;29.05;42.60;100023.59;4139977;28;20240;-68
2022/06/12 09:13:58;;;;;;;6.57;3.10;;;;;;;30.16;41.84;100030.88;4143055;28;20233;-67
2022/06/12 09:16:25;;;;;;;5.28;3.22;;;;;;;28.72;43.86;100025.81;4138245;28;21140;-68
2022/06/12 09:18:55;;;;;;;5.63;2.97;;;;;;;29.45;43.17;100005.44;4142425;28;20229;-68
2022/06/12 09:21:10;;;;;;;5.93;3.15;;;;;;;28.54;43.74;100010.75;4123816;28;20229;-68
2022/06/12 09:23:23;;;;;;;6.80;3.13;;;;;;;29.90;42.14;99996.50;4139798;28;20259;-68
2022/06/12 09:25:42;;;;;;;6.95;3.38;;;;;;;29.28;44.03;99994.00;4142724;28;21012;-67
2022/06/12 09:27:44;;;;;;;8.23;3.10;;;;;;;29.96;43.03;100006.31;4138852;28;20241;-68
2022/06/12 09:30:11;;;;;;;6.60;3.17;;;;;;;29.78;42.92;100005.88;4145078;28;20327;-68
2022/06/12 09:32:38;;;;;;;4.55;2.95;;;;;;;29.89;43.26;100005.81;4138032;28;20314;-68
2022/06/12 09:35:17;;;;;;;6.43;3.28;;;;;;;30.06;42.79;99999.97;4141379;28;20287;-67
2022/06/12 09:40:14;;;;;;;4.28;2.97;;;;;;;30.35;41.97;100009.13;4134441;28;20289;-68
2022/06/12 09:42:23;;;;;;;6.05;3.08;;;;;;;29.44;43.00;100013.94;4140977;28;20233;-68
2022/06/12 09:44:29;;;;;;;7.50;2.80;;;;;;;30.73;41.53;100008.56;4138912;28;20232;-68
2022/06/12 09:46:36;;;;;;;4.40;2.83;;;;;;;30.78;40.95;100016.75;4137122;28;20240;-68
2022/06/12 09:49:02;;;;;;;5.28;2.72;;;;;;;30.74;40.52;100011.03;4139908;28;20626;-67
2022/06/12 09:51:10;;;;;;;2.90;1.90;;;;;;;30.03;39.10;100017.81;4130176;28;20232;-68
2022/06/12 09:53:46;;;;;;;4.43;2.40;;;;;;;30.63;38.64;100023.16;4140811;28;20256;-68
2022/06/12 09:55:56;;;;;;;4.60;2.20;;;;;;;30.95;38.64;100027.28;4137323;28;20229;-68
2022/06/12 09:58:15;;;;;;;3.97;2.55;;;;;;;31.10;37.32;100027.13;4140093;28;20233;-68
2022/06/12 10:00:42;;;;;;;7.43;2.50;;;;;;;30.87;37.93;100025.19;4144763;28;20260;-67
2022/06/12 10:02:52;;;;;;;5.32;2.17;;;;;;;31.27;37.64;100023.16;4141714;28;20237;-67
2022/06/12 10:05:18;;;;;;;4.25;2.42;;;;;;;31.03;37.99;100007.44;4135351;28;20278;-67
2022/06/12 10:07:35;;;;;;;3.85;2.20;;;;;;;31.10;38.79;99993.38;4138935;28;20653;-67
2022/06/12 10:09:52;;;;;;;3.42;2.13;;;;;;;31.07;37.49;99996.69;4140121;28;20591;-67
2022/06/12 10:12:02;;;;;;;8.52;2.42;;;;;;;30.91;38.06;100001.53;4140146;28;20307;-67